sensor_id;sensor_type;location;lat;lon;timestamp;pressure;altitude;pressure_sealevel;temperature;humidity
23303;BME280;11820;48.738;9.092;2023-09-12T00:01:19;95962.28;;;22.40;100.00
23303;BME280;11820;48.738;9.092;2023-09-12T00:03:44;95951.63;;;22.55;100.00
23303;BME280;11820;48.738;9.092;2023-09-12T00:06:10;95959.19;;;22.23;100.00
23303;BME280;11820;48.738;9.092;2023-09-12T00:08:35;95956.47;;;22.33;100.00
23303;BME280;11820;48.738;9.092;2023-09-12T00:11:05;95953.88;;;22.38;100.00
23303;BME280;11820;48.738;9.092;2023-09-12T00:13:39;95947.78;;;22.37;100.00
23303;BME280;11820;48.738;9.092;2023-09-12T00:16:06;95946.72;;;22.38;100.00
23303;BME280;11820;48.738;9.092;2023-09-12T00:18:32;95943.69;;;22.55;100.00
23303;BME280;11820;48.738;9.092;2023-09-12T00:20:59;95944.50;;;22.55;100.00
23303;BME280;11820;48.738;9.092;2023-09-12T00:23:25;95945.53;;;22.59;100.00
23303;BME280;11820;48.738;9.092;2023-09-12T00:25:51;95937.41;;;22.51;100.00
23303;BME280;11820;48.738;9.092;2023-09-12T00:28:17;95934.34;;;22.39;100.00
23303;BME280;11820;48.738;9.092;2023-09-12T00:30:43;95938.31;;;22.31;100.00
23303;BME280;11820;48.738;9.092;2023-09-12T00:33:08;95940.72;;;22.28;100.00
23303;BME280;11820;48.738;9.092;2023-09-12T00:35:33;95939.84;;;21.99;100.00
23303;BME280;11820;48.738;9.092;2023-09-12T00:37:59;95939.91;;;21.89;100.00
23303;BME280;11820;48.738;9.092;2023-09-12T00:40:24;95942.78;;;21.92;100.00
23303;BME280;11820;48.738;9.092;2023-09-12T00:42:49;95944.38;;;21.88;100.00
23303;BME280;11820;48.738;9.092;2023-09-12T00:45:14;95949.25;;;21.61;100.00
23303;BME280;11820;48.738;9.092;2023-09-12T00:47:40;95943.63;;;21.78;100.00
23303;BME280;11820;48.738;9.092;2023-09-12T00:50:06;95938.44;;;21.68;100.00
23303;BME280;11820;48.738;9.092;2023-09-12T00:52:34;95934.75;;;21.69;100.00
23303;BME280;11820;48.738;9.092;2023-09-12T00:55:00;95939.75;;;21.60;100.00
23303;BME280;11820;48.738;9.092;2023-09-12T00:57:26;95938.25;;;21.44;100.00
23303;BME280;11820;48.738;9.092;2023-09-12T00:59:53;95936.06;;;21.66;100.00
23303;BME280;11820;48.738;9.092;2023-09-12T01:02:19;95927.84;;;21.78;100.00
23303;BME280;11820;48.738;9.092;2023-09-12T01:04:46;95929.97;;;21.71;100.00
23303;BME280;11820;48.738;9.092;2023-09-12T01:07:11;95932.13;;;21.64;100.00
23303;BME280;11820;48.738;9.092;2023-09-12T01:09:37;95929.50;;;21.54;100.00
23303;BME280;11820;48.738;9.092;2023-09-12T01:12:03;95922.63;;;21.68;100.00
23303;BME280;11820;48.738;9.092;2023-09-12T01:14:29;95921.09;;;21.57;100.00
23303;BME280;11820;48.738;9.092;2023-09-12T01:16:55;95924.97;;;21.74;100.00
23303;BME280;11820;48.738;9.092;2023-09-12T01:19:21;95919.13;;;21.82;100.00
23303;BME280;11820;48.738;9.092;2023-09-12T01:27:38;95928.13;;;21.76;100.00
23303;BME280;11820;48.738;9.092;2023-09-12T01:30:07;95929.34;;;21.94;100.00
23303;BME280;11820;48.738;9.092;2023-09-12T01:32:33;95927.19;;;22.01;100.00
23303;BME280;11820;48.738;9.092;2023-09-12T01:35:00;95925.63;;;22.00;100.00
23303;BME280;11820;48.738;9.092;2023-09-12T01:37:25;95930.97;;;21.85;100.00
23303;BME280;11820;48.738;9.092;2023-09-12T01:39:51;95925.63;;;22.00;100.00
23303;BME280;11820;48.738;9.092;2023-09-12T01:42:20;95937.63;;;21.72;100.00
23303;BME280;11820;48.738;9.092;2023-09-12T01:44:47;95928.97;;;21.62;100.00
23303;BME280;11820;48.738;9.092;2023-09-12T01:47:15;95931.09;;;21.50;100.00
23303;BME280;11820;48.738;9.092;2023-09-12T01:49:45;95932.13;;;21.54;100.00
23303;BME280;11820;48.738;9.092;2023-09-12T01:52:12;95927.38;;;21.61;100.00
23303;BME280;11820;48.738;9.092;2023-09-12T01:54:39;95934.69;;;21.84;100.00
23303;BME280;11820;48.738;9.092;2023-09-12T01:57:05;95927.13;;;21.62;100.00
23303;BME280;11820;48.738;9.092;2023-09-12T01:59:31;95928.19;;;21.56;100.00
23303;BME280;11820;48.738;9.092;2023-09-12T02:01:56;95926.63;;;21.50;100.00
23303;BME280;11820;48.738;9.092;2023-09-12T02:04:22;95926.41;;;21.42;100.00
23303;BME280;11820;48.738;9.092;2023-09-12T02:06:47;95931.72;;;21.32;100.00
23303;BME280;11820;48.738;9.092;2023-09-12T02:09:12;95924.81;;;21.46;100.00
23303;BME280;11820;48.738;9.092;2023-09-12T02:11:38;95926.94;;;21.39;100.00
23303;BME280;11820;48.738;9.092;2023-09-12T02:14:03;95918.44;;;21.52;100.00
23303;BME280;11820;48.738;9.092;2023-09-12T02:16:30;95917.84;;;21.75;100.00
23303;BME280;11820;48.738;9.092;2023-09-12T02:18:56;95925.03;;;22.13;100.00
23303;BME280;11820;48.738;9.092;2023-09-12T02:21:21;95922.75;;;22.35;100.00
23303;BME280;11820;48.738;9.092;2023-09-12T02:23:47;95923.16;;;22.52;100.00
23303;BME280;11820;48.738;9.092;2023-09-12T02:26:12;95927.41;;;22.48;100.00
23303;BME280;11820;48.738;9.092;2023-09-12T02:28:37;95916.19;;;22.32;100.00
23303;BME280;11820;48.738;9.092;2023-09-12T02:31:02;95920.88;;;22.40;100.00
23303;BME280;11820;48.738;9.092;2023-09-12T02:33:28;95914.34;;;22.38;100.00
23303;BME280;11820;48.738;9.092;2023-09-12T02:35:53;95908.38;;;22.17;100.00
23303;BME280;11820;48.738;9.092;2023-09-12T02:38:19;95908.53;;;22.36;100.00
23303;BME280;11820;48.738;9.092;2023-09-12T02:40:44;95913.50;;;22.42;100.00
23303;BME280;11820;48.738;9.092;2023-09-12T02:43:09;95899.50;;;22.47;100.00
23303;BME280;11820;48.738;9.092;2023-09-12T02:45:35;95893.75;;;22.40;100.00
23303;BME280;11820;48.738;9.092;2023-09-12T02:48:00;95899.81;;;22.35;100.00
23303;BME280;11820;48.738;9.092;2023-09-12T02:50:25;95897.66;;;22.09;100.00
23303;BME280;11820;48.738;9.092;2023-09-12T02:52:51;95895.63;;;21.96;100.00
23303;BME280;11820;48.738;9.092;2023-09-12T02:55:17;95895.00;;;21.60;100.00
23303;BME280;11820;48.738;9.092;2023-09-12T02:57:42;95896.84;;;21.55;100.00
23303;BME280;11820;48.738;9.092;2023-09-12T03:00:07;95901.06;;;21.56;100.00
23303;BME280;11820;48.738;9.092;2023-09-12T03:02:34;95900.31;;;21.50;100.00
23303;BME280;11820;48.738;9.092;2023-09-12T03:04:59;95910.59;;;21.47;100.00
23303;BME280;11820;48.738;9.092;2023-09-12T03:07:26;95908.19;;;21.55;100.00
23303;BME280;11820;48.738;9.092;2023-09-12T03:09:51;95899.22;;;21.56;100.00
23303;BME280;11820;48.738;9.092;2023-09-12T03:12:17;95910.56;;;21.62;100.00
23303;BME280;11820;48.738;9.092;2023-09-12T03:14:42;95905.28;;;21.52;100.00
23303;BME280;11820;48.738;9.092;2023-09-12T03:17:08;95907.22;;;21.32;100.00
23303;BME280;11820;48.738;9.092;2023-09-12T03:19:33;95901.69;;;21.38;100.00
23303;BME280;11820;48.738;9.092;2023-09-12T03:21:58;95898.28;;;21.33;100.00
23303;BME280;11820;48.738;9.092;2023-09-12T03:24:24;95897.72;;;21.45;100.00
23303;BME280;11820;48.738;9.092;2023-09-12T03:26:53;95898.78;;;21.35;100.00
23303;BME280;11820;48.738;9.092;2023-09-12T03:29:18;95893.28;;;21.26;100.00
23303;BME280;11820;48.738;9.092;2023-09-12T03:31:44;95892.25;;;21.32;100.00
23303;BME280;11820;48.738;9.092;2023-09-12T03:34:09;95893.28;;;21.26;100.00
23303;BME280;11820;48.738;9.092;2023-09-12T03:36:34;95892.84;;;21.09;100.00
23303;BME280;11820;48.738;9.092;2023-09-12T03:39:00;95888.88;;;21.12;100.00
23303;BME280;11820;48.738;9.092;2023-09-12T03:41:25;95896.25;;;21.05;100.00
23303;BME280;11820;48.738;9.092;2023-09-12T03:43:54;95885.47;;;21.11;100.00
23303;BME280;11820;48.738;9.092;2023-09-12T03:46:20;95891.75;;;21.20;100.00
23303;BME280;11820;48.738;9.092;2023-09-12T03:48:46;95889.09;;;21.25;100.00
23303;BME280;11820;48.738;9.092;2023-09-12T03:51:12;95888.00;;;21.31;100.00
23303;BME280;11820;48.738;9.092;2023-09-12T03:53:37;95883.59;;;21.12;100.00
23303;BME280;11820;48.738;9.092;2023-09-12T03:56:09;95881.78;;;21.12;100.00
23303;BME280;11820;48.738;9.092;2023-09-12T03:58:38;95882.84;;;21.06;100.00
23303;BME280;11820;48.738;9.092;2023-09-12T04:01:03;95894.41;;;21.10;100.00
23303;BME280;11820;48.738;9.092;2023-09-12T04:03:28;95896.81;;;20.87;100.00
23303;BME280;11820;48.738;9.092;2023-09-12T04:05:53;95894.97;;;20.72;100.00
23303;BME280;11820;48.738;9.092;2023-09-12T04:08:19;95890.22;;;21.09;100.00
23303;BME280;11820;48.738;9.092;2023-09-12T04:10:44;95887.88;;;20.98;100.00
23303;BME280;11820;48.738;9.092;2023-09-12T04:13:10;95892.78;;;21.19;100.00
23303;BME280;11820;48.738;9.092;2023-09-12T04:15:35;95896.00;;;21.06;100.00
23303;BME280;11820;48.738;9.092;2023-09-12T04:18:00;95891.53;;;21.02;100.00
23303;BME280;11820;48.738;9.092;2023-09-12T04:20:26;95888.41;;;20.90;100.00
23303;BME280;11820;48.738;9.092;2023-09-12T04:22:51;95892.88;;;20.89;100.00
23303;BME280;11820;48.738;9.092;2023-09-12T04:25:16;95888.63;;;21.08;100.00
23303;BME280;11820;48.738;9.092;2023-09-12T04:27:42;95889.16;;;21.00;100.00
23303;BME280;11820;48.738;9.092;2023-09-12T04:30:08;95888.13;;;21.06;100.00
23303;BME280;11820;48.738;9.092;2023-09-12T04:32:33;95876.53;;;21.02;100.00
23303;BME280;11820;48.738;9.092;2023-09-12T04:34:59;95886.28;;;21.02;100.00
23303;BME280;11820;48.738;9.092;2023-09-12T04:37:24;95876.53;;;21.02;100.00
23303;BME280;11820;48.738;9.092;2023-09-12T04:39:49;95877.00;;;21.19;100.00
23303;BME280;11820;48.738;9.092;2023-09-12T04:42:15;95873.78;;;21.37;100.00
23303;BME280;11820;48.738;9.092;2023-09-12T04:44:41;95870.63;;;21.40;100.00
23303;BME280;11820;48.738;9.092;2023-09-12T04:47:07;95884.81;;;21.44;100.00
23303;BME280;11820;48.738;9.092;2023-09-12T04:49:33;95877.28;;;21.23;100.00
23303;BME280;11820;48.738;9.092;2023-09-12T04:51:58;95877.22;;;21.33;100.00
23303;BME280;11820;48.738;9.092;2023-09-12T04:54:24;95886.38;;;21.45;100.00
23303;BME280;11820;48.738;9.092;2023-09-12T04:56:49;95882.50;;;21.33;100.00
23303;BME280;11820;48.738;9.092;2023-09-12T04:59:15;95881.59;;;21.57;100.00
23303;BME280;11820;48.738;9.092;2023-09-12T05:01:40;95879.75;;;21.57;100.00
23303;BME280;11820;48.738;9.092;2023-09-12T05:04:05;95893.16;;;21.61;100.00
23303;BME280;11820;48.738;9.092;2023-09-12T05:06:31;95894.50;;;21.53;100.00
23303;BME280;11820;48.738;9.092;2023-09-12T05:08:56;95891.59;;;21.65;100.00
23303;BME280;11820;48.738;9.092;2023-09-12T05:11:22;95896.06;;;21.54;100.00
23303;BME280;11820;48.738;9.092;2023-09-12T05:13:52;95885.25;;;21.56;100.00
23303;BME280;11820;48.738;9.092;2023-09-12T05:16:17;95886.31;;;21.55;100.00
23303;BME280;11820;48.738;9.092;2023-09-12T05:18:43;95876.94;;;21.39;100.00
23303;BME280;11820;48.738;9.092;2023-09-12T05:21:08;95880.69;;;21.23;100.00
23303;BME280;11820;48.738;9.092;2023-09-12T05:23:34;95883.81;;;21.35;100.00
23303;BME280;11820;48.738;9.092;2023-09-12T05:25:59;95890.53;;;21.61;100.00
23303;BME280;11820;48.738;9.092;2023-09-12T05:28:25;95884.06;;;21.92;100.00
23303;BME280;11820;48.738;9.092;2023-09-12T05:30:50;95889.22;;;22.07;100.00
23303;BME280;11820;48.738;9.092;2023-09-12T05:33:15;95888.19;;;22.08;100.00
23303;BME280;11820;48.738;9.092;2023-09-12T05:35:41;95891.66;;;21.98;100.00
23303;BME280;11820;48.738;9.092;2023-09-12T05:38:06;95897.91;;;22.07;100.00
23303;BME280;11820;48.738;9.092;2023-09-12T05:40:31;95901.81;;;22.15;100.00
23303;BME280;11820;48.738;9.092;2023-09-12T05:42:57;95899.56;;;21.93;100.00
23303;BME280;11820;48.738;9.092;2023-09-12T05:45:22;95901.47;;;21.88;100.00
23303;BME280;11820;48.738;9.092;2023-09-12T05:47:48;95895.56;;;22.01;100.00
23303;BME280;11820;48.738;9.092;2023-09-12T05:50:13;95904.97;;;22.17;100.00
23303;BME280;11820;48.738;9.092;2023-09-12T05:52:39;95912.78;;;22.27;100.00
23303;BME280;11820;48.738;9.092;2023-09-12T05:55:04;95905.59;;;22.42;100.00
23303;BME280;11820;48.738;9.092;2023-09-12T05:57:30;95914.03;;;22.39;100.00
23303;BME280;11820;48.738;9.092;2023-09-12T05:59:58;95912.16;;;22.45;100.00
23303;BME280;11820;48.738;9.092;2023-09-12T06:02:25;95911.50;;;22.58;100.00
23303;BME280;11820;48.738;9.092;2023-09-12T06:04:50;95914.69;;;22.60;100.00
23303;BME280;11820;48.738;9.092;2023-09-12T06:07:15;95913.63;;;22.61;100.00
23303;BME280;11820;48.738;9.092;2023-09-12T06:09:41;95920.56;;;22.47;100.00
23303;BME280;11820;48.738;9.092;2023-09-12T06:12:06;95913.09;;;22.59;100.00
23303;BME280;11820;48.738;9.092;2023-09-12T06:14:31;95920.88;;;22.74;100.00
23303;BME280;11820;48.738;9.092;2023-09-12T06:16:57;95916.16;;;22.71;100.00
23303;BME280;11820;48.738;9.092;2023-09-12T06:19:22;95925.78;;;22.85;100.00
23303;BME280;11820;48.738;9.092;2023-09-12T06:21:47;95923.88;;;22.91;100.00
23303;BME280;11820;48.738;9.092;2023-09-12T06:24:18;95920.97;;;22.92;100.00
23303;BME280;11820;48.738;9.092;2023-09-12T06:26:43;95916.44;;;22.98;100.00
23303;BME280;11820;48.738;9.092;2023-09-12T06:29:09;95914.25;;;23.05;100.00
23303;BME280;11820;48.738;9.092;2023-09-12T06:31:34;95916.81;;;23.09;100.00
23303;BME280;11820;48.738;9.092;2023-09-12T06:34:00;95909.25;;;23.03;100.00
23303;BME280;11820;48.738;9.092;2023-09-12T06:36:26;95916.75;;;23.19;100.00
23303;BME280;11820;48.738;9.092;2023-09-12T06:38:57;95916.25;;;23.17;100.00
23303;BME280;11820;48.738;9.092;2023-09-12T06:41:23;95925.56;;;23.33;100.00
23303;BME280;11820;48.738;9.092;2023-09-12T06:43:48;95929.63;;;23.49;100.00
23303;BME280;11820;48.738;9.092;2023-09-12T06:46:13;95926.38;;;23.34;100.00
23303;BME280;11820;48.738;9.092;2023-09-12T06:48:39;95932.09;;;23.17;100.00
23303;BME280;11820;48.738;9.092;2023-09-12T06:51:06;95939.72;;;23.19;100.00
23303;BME280;11820;48.738;9.092;2023-09-12T06:53:31;95936.31;;;23.18;100.00
23303;BME280;11820;48.738;9.092;2023-09-12T06:55:56;95938.56;;;23.30;100.00
23303;BME280;11820;48.738;9.092;2023-09-12T06:58:24;95932.47;;;23.29;100.00
23303;BME280;11820;48.738;9.092;2023-09-12T07:00:49;95942.88;;;23.44;100.00
23303;BME280;11820;48.738;9.092;2023-09-12T07:03:14;95941.13;;;23.35;100.00
23303;BME280;11820;48.738;9.092;2023-09-12T07:05:41;95948.94;;;23.45;100.00
23303;BME280;11820;48.738;9.092;2023-09-12T07:08:06;95945.97;;;23.51;100.00
23303;BME280;11820;48.738;9.092;2023-09-12T07:10:32;95945.84;;;23.61;100.00
23303;BME280;11820;48.738;9.092;2023-09-12T07:12:57;95951.16;;;23.61;100.00
23303;BME280;11820;48.738;9.092;2023-09-12T07:15:23;95953.63;;;23.53;100.00
23303;BME280;11820;48.738;9.092;2023-09-12T07:17:48;95955.78;;;23.69;100.00
23303;BME280;11820;48.738;9.092;2023-09-12T07:20:13;95960.50;;;23.72;100.00
23303;BME280;11820;48.738;9.092;2023-09-12T07:22:40;95961.06;;;23.69;100.00
23303;BME280;11820;48.738;9.092;2023-09-12T07:25:06;95959.78;;;23.90;100.00
23303;BME280;11820;48.738;9.092;2023-09-12T07:27:31;95968.41;;;23.96;100.00
23303;BME280;11820;48.738;9.092;2023-09-12T07:29:57;95961.06;;;23.93;100.00
23303;BME280;11820;48.738;9.092;2023-09-12T07:32:22;95962.09;;;24.15;100.00
23303;BME280;11820;48.738;9.092;2023-09-12T07:34:49;95958.03;;;24.41;100.00
23303;BME280;11820;48.738;9.092;2023-09-12T07:37:15;95960.88;;;24.63;100.00
23303;BME280;11820;48.738;9.092;2023-09-12T07:39:40;95962.38;;;24.69;100.00
23303;BME280;11820;48.738;9.092;2023-09-12T07:42:05;95963.28;;;24.78;100.00
23303;BME280;11820;48.738;9.092;2023-09-12T07:44:31;95970.00;;;24.89;100.00
23303;BME280;11820;48.738;9.092;2023-09-12T07:46:56;95970.69;;;25.08;100.00
23303;BME280;11820;48.738;9.092;2023-09-12T07:49:21;95961.84;;;25.17;100.00
23303;BME280;11820;48.738;9.092;2023-09-12T07:51:47;95971.50;;;25.08;100.00
23303;BME280;11820;48.738;9.092;2023-09-12T07:54:12;95969.31;;;24.97;100.00
23303;BME280;11820;48.738;9.092;2023-09-12T07:56:38;95968.03;;;24.94;100.00
23303;BME280;11820;48.738;9.092;2023-09-12T07:59:04;95970.22;;;25.06;100.00
23303;BME280;11820;48.738;9.092;2023-09-12T08:01:29;95970.56;;;25.18;100.00
23303;BME280;11820;48.738;9.092;2023-09-12T08:03:54;95968.41;;;25.20;100.00
23303;BME280;11820;48.738;9.092;2023-09-12T08:06:20;95970.47;;;25.23;100.00
23303;BME280;11820;48.738;9.092;2023-09-12T08:08:45;95967.81;;;25.23;100.00
23303;BME280;11820;48.738;9.092;2023-09-12T08:11:10;95975.97;;;25.26;100.00
23303;BME280;11820;48.738;9.092;2023-09-12T08:13:35;95974.50;;;25.34;100.00
23303;BME280;11820;48.738;9.092;2023-09-12T08:16:01;95973.03;;;25.28;100.00
23303;BME280;11820;48.738;9.092;2023-09-12T08:18:29;95976.16;;;25.30;100.00
23303;BME280;11820;48.738;9.092;2023-09-12T08:20:55;95979.19;;;25.23;100.00
23303;BME280;11820;48.738;9.092;2023-09-12T08:23:20;95973.91;;;25.23;100.00
23303;BME280;11820;48.738;9.092;2023-09-12T08:25:45;95968.47;;;25.15;100.00
23303;BME280;11820;48.738;9.092;2023-09-12T08:28:11;95965.78;;;25.20;100.00
23303;BME280;11820;48.738;9.092;2023-09-12T08:30:36;95971.06;;;25.20;100.00
23303;BME280;11820;48.738;9.092;2023-09-12T08:33:01;95974.38;;;25.25;100.00
23303;BME280;11820;48.738;9.092;2023-09-12T08:35:29;95978.44;;;25.36;100.00
23303;BME280;11820;48.738;9.092;2023-09-12T08:37:54;95969.91;;;25.39;100.00
23303;BME280;11820;48.738;9.092;2023-09-12T08:40:20;95970.78;;;25.48;100.00
23303;BME280;11820;48.738;9.092;2023-09-12T08:42:45;95973.06;;;25.55;100.00
23303;BME280;11820;48.738;9.092;2023-09-12T08:45:16;95976.28;;;25.52;100.00
23303;BME280;11820;48.738;9.092;2023-09-12T08:47:43;95979.03;;;25.60;100.00
23303;BME280;11820;48.738;9.092;2023-09-12T08:50:13;95973.84;;;25.69;100.00
23303;BME280;11820;48.738;9.092;2023-09-12T08:52:40;95974.22;;;25.76;100.00
23303;BME280;11820;48.738;9.092;2023-09-12T08:55:07;95975.69;;;25.82;100.00
23303;BME280;11820;48.738;9.092;2023-09-12T08:57:33;95971.59;;;25.89;100.00
23303;BME280;11820;48.738;9.092;2023-09-12T09:00:01;95973.06;;;25.95;100.00
23303;BME280;11820;48.738;9.092;2023-09-12T09:02:32;95969.91;;;26.07;100.00
23303;BME280;11820;48.738;9.092;2023-09-12T09:04:58;95971.06;;;26.14;100.00
23303;BME280;11820;48.738;9.092;2023-09-12T09:07:24;95970.97;;;26.19;100.00
23303;BME280;11820;48.738;9.092;2023-09-12T09:09:50;95972.59;;;26.29;100.00
23303;BME280;11820;48.738;9.092;2023-09-12T09:12:18;95976.81;;;26.30;100.00
23303;BME280;11820;48.738;9.092;2023-09-12T09:14:44;95973.06;;;26.44;100.00
23303;BME280;11820;48.738;9.092;2023-09-12T09:17:09;95969.13;;;26.55;100.00
23303;BME280;11820;48.738;9.092;2023-09-12T09:19:44;95968.56;;;26.66;100.00
23303;BME280;11820;48.738;9.092;2023-09-12T09:22:09;95955.81;;;26.68;100.00
23303;BME280;11820;48.738;9.092;2023-09-12T09:24:35;95952.91;;;26.78;100.00
23303;BME280;11820;48.738;9.092;2023-09-12T09:27:00;95955.56;;;26.78;100.00
23303;BME280;11820;48.738;9.092;2023-09-12T09:29:27;95950.78;;;26.89;100.00
23303;BME280;11820;48.738;9.092;2023-09-12T09:31:59;95951.31;;;26.99;100.00
23303;BME280;11820;48.738;9.092;2023-09-12T09:34:25;95946.34;;;27.06;100.00
23303;BME280;11820;48.738;9.092;2023-09-12T09:36:54;95946.63;;;27.27;100.00
23303;BME280;11820;48.738;9.092;2023-09-12T09:39:22;95951.06;;;27.40;100.00
23303;BME280;11820;48.738;9.092;2023-09-12T09:41:55;95944.84;;;27.53;100.00
23303;BME280;11820;48.738;9.092;2023-09-12T09:44:22;95951.59;;;27.50;100.00
23303;BME280;11820;48.738;9.092;2023-09-12T09:46:58;95947.88;;;27.68;100.00
23303;BME280;11820;48.738;9.092;2023-09-12T09:49:25;95946.41;;;27.84;100.00
23303;BME280;11820;48.738;9.092;2023-09-12T09:51:54;95937.19;;;27.90;100.00
23303;BME280;11820;48.738;9.092;2023-09-12T09:54:24;95934.41;;;27.95;100.00
23303;BME280;11820;48.738;9.092;2023-09-12T09:56:53;95936.91;;;28.09;100.00
23303;BME280;11820;48.738;9.092;2023-09-12T09:59:23;95921.72;;;28.09;100.00
23303;BME280;11820;48.738;9.092;2023-09-12T10:01:50;95923.66;;;28.34;100.00
23303;BME280;11820;48.738;9.092;2023-09-12T10:04:18;95914.88;;;28.42;100.00
23303;BME280;11820;48.738;9.092;2023-09-12T10:06:45;95919.88;;;28.60;100.00
23303;BME280;11820;48.738;9.092;2023-09-12T10:09:12;95916.44;;;28.68;100.00
23303;BME280;11820;48.738;9.092;2023-09-12T10:11:39;95917.94;;;28.95;99.54
23303;BME280;11820;48.738;9.092;2023-09-12T10:14:06;95924.47;;;29.23;98.25
23303;BME280;11820;48.738;9.092;2023-09-12T10:16:33;95921.91;;;29.35;96.50
23303;BME280;11820;48.738;9.092;2023-09-12T10:19:12;95926.72;;;29.04;94.16
23303;BME280;11820;48.738;9.092;2023-09-12T10:21:49;95933.91;;;29.12;91.63
23303;BME280;11820;48.738;9.092;2023-09-12T10:24:15;95932.19;;;29.07;90.20
23303;BME280;11820;48.738;9.092;2023-09-12T10:26:42;95924.41;;;29.40;90.26
23303;BME280;11820;48.738;9.092;2023-09-12T10:29:13;95923.25;;;29.58;86.76
23303;BME280;11820;48.738;9.092;2023-09-12T10:31:42;95919.75;;;29.95;83.35
23303;BME280;11820;48.738;9.092;2023-09-12T10:34:10;95926.56;;;29.84;84.38
23303;BME280;11820;48.738;9.092;2023-09-12T10:36:39;95922.84;;;29.76;81.44
23303;BME280;11820;48.738;9.092;2023-09-12T10:39:06;95926.25;;;30.14;80.33
23303;BME280;11820;48.738;9.092;2023-09-12T10:41:32;95922.50;;;30.47;81.01
23303;BME280;11820;48.738;9.092;2023-09-12T10:43:58;95925.66;;;31.02;79.42
23303;BME280;11820;48.738;9.092;2023-09-12T10:46:24;95924.28;;;31.29;78.07
23303;BME280;11820;48.738;9.092;2023-09-12T10:48:50;95919.72;;;32.13;74.71
23303;BME280;11820;48.738;9.092;2023-09-12T10:51:16;95917.88;;;32.80;73.54
23303;BME280;11820;48.738;9.092;2023-09-12T10:53:49;95911.28;;;34.32;69.28
23303;BME280;11820;48.738;9.092;2023-09-12T10:56:18;95907.34;;;37.56;56.68
23303;BME280;11820;48.738;9.092;2023-09-12T11:01:44;95904.44;;;43.63;40.22
23303;BME280;11820;48.738;9.092;2023-09-12T11:06:44;95902.72;;;46.28;35.37
23303;BME280;11820;48.738;9.092;2023-09-12T11:09:26;95905.56;;;47.56;32.89
23303;BME280;11820;48.738;9.092;2023-09-12T11:14:21;95896.91;;;46.95;33.59
23303;BME280;11820;48.738;9.092;2023-09-12T11:19:52;95898.22;;;48.88;30.26
23303;BME280;11820;48.738;9.092;2023-09-12T11:22:25;95897.44;;;48.24;29.35
23303;BME280;11820;48.738;9.092;2023-09-12T11:24:51;95897.78;;;49.20;29.63
23303;BME280;11820;48.738;9.092;2023-09-12T11:27:17;95892.97;;;49.03;29.58
23303;BME280;11820;48.738;9.092;2023-09-12T11:29:43;95885.75;;;50.65;27.93
23303;BME280;11820;48.738;9.092;2023-09-12T11:32:08;95884.25;;;50.01;28.11
23303;BME280;11820;48.738;9.092;2023-09-12T11:34:42;95880.84;;;49.88;28.05
23303;BME280;11820;48.738;9.092;2023-09-12T11:37:08;95880.41;;;50.79;27.96
23303;BME280;11820;48.738;9.092;2023-09-12T11:39:36;95883.75;;;51.99;25.75
23303;BME280;11820;48.738;9.092;2023-09-12T11:42:03;95868.19;;;50.45;26.73
23303;BME280;11820;48.738;9.092;2023-09-12T11:44:30;95875.69;;;51.21;25.94
23303;BME280;11820;48.738;9.092;2023-09-12T11:46:58;95879.66;;;53.33;25.02
23303;BME280;11820;48.738;9.092;2023-09-12T11:49:35;95863.59;;;52.22;25.19
23303;BME280;11820;48.738;9.092;2023-09-12T11:52:00;95867.50;;;52.30;24.90
23303;BME280;11820;48.738;9.092;2023-09-12T11:54:26;95864.66;;;49.99;25.94
23303;BME280;11820;48.738;9.092;2023-09-12T11:56:52;95866.72;;;52.81;24.00
23303;BME280;11820;48.738;9.092;2023-09-12T11:59:26;95865.22;;;48.88;26.20
23303;BME280;11820;48.738;9.092;2023-09-12T12:01:52;95860.44;;;49.10;26.53
23303;BME280;11820;48.738;9.092;2023-09-12T12:04:19;95865.13;;;45.68;28.67
23303;BME280;11820;48.738;9.092;2023-09-12T12:06:46;95862.50;;;44.00;30.25
23303;BME280;11820;48.738;9.092;2023-09-12T12:09:11;95863.41;;;43.21;31.82
23303;BME280;11820;48.738;9.092;2023-09-12T12:11:36;95857.41;;;41.73;32.99
23303;BME280;11820;48.738;9.092;2023-09-12T12:14:15;95861.28;;;42.79;32.22
23303;BME280;11820;48.738;9.092;2023-09-12T12:16:42;95852.25;;;46.41;29.37
23303;BME280;11820;48.738;9.092;2023-09-12T12:19:08;95853.94;;;49.83;26.79
23303;BME280;11820;48.738;9.092;2023-09-12T12:21:34;95853.56;;;50.89;25.79
23303;BME280;11820;48.738;9.092;2023-09-12T12:24:01;95851.72;;;51.60;24.81
23303;BME280;11820;48.738;9.092;2023-09-12T12:26:26;95839.81;;;50.80;25.57
23303;BME280;11820;48.738;9.092;2023-09-12T12:28:52;95830.75;;;52.00;24.85
23303;BME280;11820;48.738;9.092;2023-09-12T12:31:18;95845.16;;;51.81;24.62
23303;BME280;11820;48.738;9.092;2023-09-12T12:33:48;95840.19;;;51.38;24.36
23303;BME280;11820;48.738;9.092;2023-09-12T12:36:14;95835.50;;;52.81;23.90
23303;BME280;11820;48.738;9.092;2023-09-12T12:38:39;95838.72;;;52.22;24.56
23303;BME280;11820;48.738;9.092;2023-09-12T12:41:05;95834.84;;;52.86;23.51
23303;BME280;11820;48.738;9.092;2023-09-12T12:43:31;95833.13;;;52.45;23.73
23303;BME280;11820;48.738;9.092;2023-09-12T12:45:58;95823.25;;;51.92;23.77
23303;BME280;11820;48.738;9.092;2023-09-12T12:48:34;95842.09;;;52.40;24.09
23303;BME280;11820;48.738;9.092;2023-09-12T12:51:01;95837.78;;;53.46;22.70
23303;BME280;11820;48.738;9.092;2023-09-12T12:53:41;95839.59;;;52.85;22.72
23303;BME280;11820;48.738;9.092;2023-09-12T12:56:06;95840.41;;;49.58;24.94
23303;BME280;11820;48.738;9.092;2023-09-12T12:58:32;95831.31;;;50.06;24.29
23303;BME280;11820;48.738;9.092;2023-09-12T13:00:58;95831.41;;;52.48;23.81
23303;BME280;11820;48.738;9.092;2023-09-12T13:03:23;95828.38;;;52.08;23.38
23303;BME280;11820;48.738;9.092;2023-09-12T13:05:48;95822.47;;;52.15;23.06